createdAt,value
2024-04-09T00:01:38.700Z,2.50
2024-04-09T00:04:06.710Z,3.55
2024-04-09T00:06:33.955Z,2.60
2024-04-09T00:09:07.404Z,2.63
2024-04-09T00:11:34.681Z,3.28
2024-04-09T00:14:05.677Z,3.22
2024-04-09T00:16:35.266Z,3.33
2024-04-09T00:19:02.947Z,3.17
2024-04-09T00:21:31.122Z,2.95
2024-04-09T00:23:59.708Z,2.85
2024-04-09T00:26:29.748Z,3.40
2024-04-09T00:28:56.824Z,2.85
2024-04-09T00:31:26.199Z,2.30
2024-04-09T00:33:53.661Z,2.47
2024-04-09T00:36:21.346Z,2.72
2024-04-09T00:38:49.088Z,2.50
2024-04-09T00:41:19.159Z,2.63
2024-04-09T00:43:46.939Z,1.90
2024-04-09T00:46:14.924Z,2.42
2024-04-09T00:48:43.336Z,2.72
2024-04-09T00:51:13.554Z,1.88
2024-04-09T00:53:44.362Z,2.30
2024-04-09T00:56:12.601Z,2.53
2024-04-09T00:58:40.417Z,2.55
2024-04-09T01:01:07.893Z,2.42
2024-04-09T01:03:37.130Z,2.33
2024-04-09T01:06:10.497Z,2.22
2024-04-09T01:08:37.681Z,2.43
2024-04-09T01:11:08.970Z,2.50
2024-04-09T01:13:39.590Z,2.33
2024-04-09T01:16:06.972Z,2.22
2024-04-09T01:18:34.062Z,2.35
2024-04-09T01:21:01.256Z,2.10
2024-04-09T01:23:28.206Z,2.92
2024-04-09T01:25:55.159Z,2.40
2024-04-09T01:28:22.066Z,1.95
2024-04-09T01:30:52.395Z,2.53
2024-04-09T01:33:19.721Z,2.47
2024-04-09T01:35:48.047Z,2.35
2024-04-09T01:38:15.143Z,2.33
2024-04-09T01:40:42.071Z,2.35
2024-04-09T01:43:08.986Z,2.70
2024-04-09T01:45:36.191Z,2.03
2024-04-09T01:48:03.377Z,2.58
2024-04-09T01:50:30.405Z,2.50
2024-04-09T01:52:57.379Z,2.97
2024-04-09T01:55:24.401Z,2.70
2024-04-09T01:57:51.826Z,3.27
2024-04-09T02:00:21.799Z,2.33
2024-04-09T02:02:53.883Z,3.20
2024-04-09T02:05:22.048Z,2.90
2024-04-09T02:07:49.787Z,3.17
2024-04-09T02:10:16.901Z,3.03
2024-04-09T02:12:44.403Z,3.20
2024-04-09T02:15:15.780Z,3.70
2024-04-09T02:17:42.859Z,2.85
2024-04-09T02:20:11.643Z,3.13
2024-04-09T02:22:39.117Z,2.90
2024-04-09T02:25:06.575Z,3.28
2024-04-09T02:27:34.282Z,4.28
2024-04-09T02:30:04.321Z,3.60
2024-04-09T02:32:33.156Z,3.70
2024-04-09T02:35:00.228Z,4.40
2024-04-09T02:37:27.385Z,3.47
2024-04-09T02:39:54.338Z,3.78
2024-04-09T02:42:22.025Z,3.72
2024-04-09T02:44:49.206Z,3.42
2024-04-09T02:47:16.567Z,3.17
2024-04-09T02:49:45.480Z,3.25
2024-04-09T02:52:12.937Z,3.13
2024-04-09T02:54:42.861Z,2.92
2024-04-09T02:57:11.882Z,3.13
2024-04-09T02:59:40.572Z,2.33
2024-04-09T03:02:07.724Z,2.63
2024-04-09T03:04:34.915Z,3.22
2024-04-09T03:07:01.871Z,2.60
2024-04-09T03:09:29.463Z,3.25
2024-04-09T03:11:58.825Z,3.20
2024-04-09T03:14:26.438Z,2.35
2024-04-09T03:16:53.449Z,2.80
2024-04-09T03:19:20.381Z,2.58
2024-04-09T03:21:47.296Z,3.65
2024-04-09T03:24:14.273Z,3.80
2024-04-09T03:26:41.237Z,3.25
2024-04-09T03:29:08.304Z,3.95
2024-04-09T03:31:35.439Z,4.05
2024-04-09T03:34:02.530Z,4.32
2024-04-09T03:36:29.742Z,4.13
2024-04-09T03:38:56.736Z,5.03
2024-04-09T03:41:23.762Z,5.00
2024-04-09T03:43:51.129Z,5.38
2024-04-09T03:46:18.103Z,5.15
2024-04-09T03:48:47.042Z,4.50
2024-04-09T03:51:16.365Z,3.95
2024-04-09T03:53:45.953Z,5.03
2024-04-09T03:56:13.332Z,4.55
2024-04-09T03:58:45.584Z,5.80
2024-04-09T04:01:13.766Z,4.47
2024-04-09T04:03:43.422Z,4.85
2024-04-09T04:06:10.919Z,5.45
2024-04-09T04:08:39.911Z,5.45
2024-04-09T04:11:09.477Z,6.28
2024-04-09T04:13:37.860Z,6.50
2024-04-09T04:16:05.830Z,6.70
2024-04-09T04:18:36.450Z,7.03
2024-04-09T04:21:06.327Z,7.45
2024-04-09T04:23:35.267Z,6.65
2024-04-09T04:26:04.537Z,4.67
2024-04-09T04:28:32.786Z,4.22
2024-04-09T04:31:00.693Z,3.63
2024-04-09T04:33:28.784Z,2.75
2024-04-09T04:35:56.025Z,3.28
2024-04-09T04:38:23.664Z,3.43
2024-04-09T04:40:53.753Z,5.55
2024-04-09T04:43:20.920Z,7.55
2024-04-09T04:45:48.607Z,6.85
2024-04-09T04:48:18.079Z,6.10
2024-04-09T04:50:47.919Z,5.03
2024-04-09T04:53:15.346Z,5.65
2024-04-09T04:55:42.439Z,4.75
2024-04-09T04:58:09.564Z,3.38
2024-04-09T05:00:43.203Z,3.90
2024-04-09T05:03:11.215Z,3.73
2024-04-09T05:05:38.839Z,3.83
2024-04-09T05:08:06.186Z,4.45
2024-04-09T05:10:33.662Z,2.92
2024-04-09T05:13:01.359Z,3.00
2024-04-09T05:15:30.077Z,2.10
2024-04-09T05:17:58.744Z,2.28
2024-04-09T05:20:30.233Z,2.78
2024-04-09T05:22:58.176Z,2.00
2024-04-09T05:25:28.538Z,2.30
2024-04-09T05:27:56.352Z,2.10
2024-04-09T05:30:23.818Z,2.47
2024-04-09T05:32:50.927Z,2.95
2024-04-09T05:35:21.169Z,2.42
2024-04-09T05:37:48.685Z,3.00
2024-04-09T05:40:16.074Z,2.40
2024-04-09T05:42:45.910Z,2.45
2024-04-09T05:45:15.775Z,2.92
2024-04-09T05:47:43.157Z,3.17
2024-04-09T05:50:10.392Z,3.03
2024-04-09T05:52:37.773Z,3.03
2024-04-09T05:55:06.925Z,2.65
2024-04-09T05:57:43.491Z,3.85
2024-04-09T06:00:15.992Z,3.70
2024-04-09T06:02:46.985Z,3.30
2024-04-09T06:05:17.377Z,3.13
2024-04-09T06:07:46.476Z,3.00
2024-04-09T06:10:16.490Z,3.28
2024-04-09T06:12:43.980Z,3.72
2024-04-09T06:15:11.449Z,3.08
2024-04-09T06:17:38.603Z,3.07
2024-04-09T06:20:06.592Z,3.50
2024-04-09T06:22:33.984Z,4.13
2024-04-09T06:25:01.340Z,3.25
2024-04-09T06:27:28.501Z,4.32
2024-04-09T06:29:55.751Z,3.50
2024-04-09T06:32:25.970Z,3.85
2024-04-09T06:34:52.974Z,4.03
2024-04-09T06:37:20.163Z,3.40
2024-04-09T06:39:47.877Z,4.28
2024-04-09T06:42:15.032Z,2.83
2024-04-09T06:44:42.061Z,3.80
2024-04-09T06:47:09.127Z,4.07
2024-04-09T06:49:36.313Z,2.65
2024-04-09T06:52:03.791Z,2.38
2024-04-09T06:54:31.286Z,2.13
2024-04-09T06:56:58.396Z,2.60
2024-04-09T06:59:27.730Z,2.70
2024-04-09T07:01:57.618Z,1.90
2024-04-09T07:04:27.395Z,2.15
2024-04-09T07:06:55.429Z,2.33
2024-04-09T07:09:23.606Z,1.95
2024-04-09T07:11:51.705Z,2.28
2024-04-09T07:14:18.757Z,2.35
2024-04-09T07:16:56.552Z,2.55
2024-04-09T07:19:23.891Z,1.73
2024-04-09T07:21:51.035Z,2.30
2024-04-09T07:24:18.051Z,2.67
2024-04-09T07:26:45.079Z,2.55
2024-04-09T07:29:14.163Z,2.25
2024-04-09T07:31:41.945Z,2.10
2024-04-09T07:34:09.024Z,1.80
2024-04-09T07:36:36.113Z,1.90
2024-04-09T07:39:04.406Z,2.17
2024-04-09T07:41:31.471Z,2.17
2024-04-09T07:43:58.518Z,1.73
2024-04-09T07:46:25.746Z,1.60
2024-04-09T07:48:53.310Z,2.15
2024-04-09T07:51:20.648Z,1.67
2024-04-09T07:53:47.657Z,1.58
2024-04-09T07:56:14.711Z,1.63
2024-04-09T07:58:41.662Z,1.83
2024-04-09T08:01:08.819Z,1.73
2024-04-09T08:03:36.720Z,2.15
2024-04-09T08:06:05.584Z,1.75
2024-04-09T08:08:38.312Z,1.97
2024-04-09T08:11:12.786Z,1.40
2024-04-09T08:13:40.164Z,1.73
2024-04-09T08:16:07.692Z,1.50
2024-04-09T08:18:35.288Z,1.90
2024-04-09T08:21:03.583Z,2.80
2024-04-09T08:23:31.917Z,1.92
2024-04-09T08:26:01.861Z,1.55
2024-04-09T08:28:29.458Z,1.80
2024-04-09T08:30:56.596Z,1.70
2024-04-09T08:33:23.861Z,1.73
2024-04-09T08:35:51.677Z,2.42
2024-04-09T08:38:19.292Z,2.50
2024-04-09T08:40:46.519Z,2.55
2024-04-09T08:43:16.946Z,1.98
2024-04-09T08:45:45.528Z,1.80
2024-04-09T08:48:16.623Z,1.77
2024-04-09T08:50:54.403Z,2.10
2024-04-09T08:53:24.693Z,2.20
2024-04-09T08:55:52.583Z,2.08
2024-04-09T08:58:19.607Z,1.37
2024-04-09T09:00:47.768Z,1.98
2024-04-09T09:03:16.280Z,2.17
2024-04-09T09:05:43.414Z,1.58
2024-04-09T09:08:10.525Z,1.88
2024-04-09T09:10:37.652Z,1.47
2024-04-09T09:13:05.847Z,1.80
2024-04-09T09:15:33.688Z,1.60
2024-04-09T09:18:00.924Z,1.45
2024-04-09T09:20:28.210Z,1.92
2024-04-09T09:22:57.919Z,1.80
2024-04-09T09:25:27.112Z,1.42
2024-04-09T09:28:10.279Z,1.98
2024-04-09T09:30:44.762Z,1.90
2024-04-09T09:33:32.224Z,1.60
2024-04-09T09:36:00.768Z,1.80
2024-04-09T09:38:28.210Z,1.65
2024-04-09T09:40:55.809Z,2.17
2024-04-09T09:43:24.072Z,1.33
2024-04-09T09:45:53.743Z,1.70
2024-04-09T09:48:22.755Z,1.83
2024-04-09T09:50:52.773Z,1.90
2024-04-09T09:53:21.334Z,1.80
2024-04-09T09:55:52.693Z,1.60
2024-04-09T09:58:26.769Z,1.70
2024-04-09T10:00:55.071Z,1.17
2024-04-09T10:03:23.555Z,1.48
2024-04-09T10:05:50.986Z,1.63
2024-04-09T10:08:29.101Z,2.30
2024-04-09T10:10:56.629Z,1.80
2024-04-09T10:13:29.374Z,1.23
2024-04-09T10:15:58.287Z,1.23
2024-04-09T10:18:35.169Z,1.73
2024-04-09T10:21:04.592Z,1.77
2024-04-09T10:23:42.580Z,2.10
2024-04-09T10:26:12.707Z,1.37
2024-04-09T10:28:39.905Z,2.10
2024-04-09T10:31:11.589Z,1.60
2024-04-09T10:33:40.713Z,1.52
2024-04-09T10:36:10.188Z,1.63
2024-04-09T10:38:43.967Z,1.77
2024-04-09T10:41:13.467Z,1.77
2024-04-09T10:43:41.023Z,1.75
2024-04-09T10:46:14.051Z,1.60
2024-04-09T10:48:43.925Z,2.40
2024-04-09T10:51:12.255Z,1.37
2024-04-09T10:53:39.765Z,1.95
2024-04-09T10:56:07.210Z,1.80
2024-04-09T10:58:39.235Z,1.95
2024-04-09T11:01:07.555Z,1.58
2024-04-09T11:03:36.009Z,1.00
2024-04-09T11:06:03.456Z,1.58
2024-04-09T11:08:33.051Z,2.33
2024-04-09T11:11:02.384Z,2.00
2024-04-09T11:13:31.528Z,2.45
2024-04-09T11:15:59.481Z,2.00
2024-04-09T11:18:27.098Z,1.48
2024-04-09T11:20:58.895Z,2.33
2024-04-09T11:23:26.542Z,2.05
2024-04-09T11:25:55.722Z,1.73
2024-04-09T11:28:24.073Z,1.80
2024-04-09T11:30:55.781Z,1.38
2024-04-09T11:33:23.733Z,2.17
2024-04-09T11:35:56.358Z,1.80
2024-04-09T11:38:23.686Z,2.42
2024-04-09T11:40:51.587Z,1.70
2024-04-09T11:43:21.751Z,2.03
2024-04-09T11:45:52.050Z,1.50
2024-04-09T11:48:22.489Z,1.48
2024-04-09T11:50:49.706Z,1.42
2024-04-09T11:53:20.862Z,1.83
2024-04-09T11:55:50.930Z,1.80
2024-04-09T11:58:18.427Z,1.95
2024-04-09T12:00:45.689Z,1.40
2024-04-09T12:03:13.228Z,2.47
2024-04-09T12:05:40.545Z,1.07
2024-04-09T12:08:07.783Z,1.30
2024-04-09T12:10:35.007Z,1.98
2024-04-09T12:13:02.181Z,1.90
2024-04-09T12:15:30.187Z,2.00
2024-04-09T12:17:59.024Z,1.97
2024-04-09T12:20:26.460Z,1.88
2024-04-09T12:22:53.811Z,2.00
2024-04-09T12:25:20.905Z,1.50
2024-04-09T12:27:48.124Z,1.80
2024-04-09T12:30:16.982Z,1.60
2024-04-09T12:32:44.522Z,1.58
2024-04-09T12:35:12.495Z,2.10
2024-04-09T12:37:39.674Z,1.58
2024-04-09T12:40:07.300Z,2.13
2024-04-09T12:42:34.568Z,1.57
2024-04-09T12:45:01.832Z,1.80
2024-04-09T12:47:29.034Z,1.08
2024-04-09T12:49:56.303Z,1.60
2024-04-09T12:52:23.434Z,2.20
2024-04-09T12:54:50.566Z,1.37
2024-04-09T12:57:17.785Z,1.38
2024-04-09T12:59:59.109Z,2.30
2024-04-09T13:02:32.628Z,1.20
2024-04-09T13:05:01.041Z,1.48
2024-04-09T13:07:28.615Z,1.50
2024-04-09T13:09:57.365Z,1.45
2024-04-09T13:12:25.675Z,1.63
2024-04-09T13:17:22.993Z,1.95
2024-04-09T13:19:51.550Z,1.43
2024-04-09T13:22:18.689Z,1.38
2024-04-09T13:24:45.778Z,1.83
2024-04-09T13:27:12.978Z,1.60
2024-04-09T13:29:40.103Z,1.70
2024-04-09T13:32:07.637Z,1.47
2024-04-09T13:34:34.689Z,1.83
2024-04-09T13:37:01.749Z,2.00
2024-04-09T13:39:28.712Z,1.30
2024-04-09T13:41:55.986Z,1.35
2024-04-09T13:44:23.061Z,1.20
2024-04-09T13:46:51.392Z,1.80
2024-04-09T13:49:19.970Z,1.77
2024-04-09T13:51:47.292Z,1.52
2024-04-09T13:54:14.368Z,1.50
2024-04-09T13:56:44.138Z,1.40
2024-04-09T13:59:12.096Z,1.58
2024-04-09T14:01:39.290Z,2.30
2024-04-09T14:04:07.086Z,1.10
2024-04-09T14:06:34.395Z,1.30
2024-04-09T14:09:01.329Z,1.13
2024-04-09T14:11:29.613Z,1.58
2024-04-09T14:13:58.382Z,1.92
2024-04-09T14:16:25.865Z,1.85
2024-04-09T14:18:53.603Z,2.10
2024-04-09T14:21:20.879Z,1.00
2024-04-09T14:23:48.198Z,2.30
2024-04-09T14:26:15.392Z,2.00
2024-04-09T14:28:43.925Z,2.40
2024-04-09T14:31:16.476Z,2.08
2024-04-09T14:33:48.426Z,1.90
2024-04-09T14:36:15.591Z,1.77
2024-04-09T14:38:42.967Z,2.20
2024-04-09T14:41:14.974Z,2.13
2024-04-09T14:43:46.758Z,1.92
2024-04-09T14:46:20.341Z,2.03
2024-04-09T14:48:49.836Z,1.95
2024-04-09T14:51:19.075Z,1.55
2024-04-09T14:53:46.302Z,1.40
2024-04-09T14:56:13.313Z,2.22
2024-04-09T14:58:40.356Z,1.90
2024-04-09T15:01:07.832Z,1.92
2024-04-09T15:03:35.222Z,2.20
2024-04-09T15:06:02.361Z,1.55
2024-04-09T15:08:31.269Z,2.25
2024-04-09T15:11:08.620Z,2.17
2024-04-09T15:13:35.659Z,1.90
2024-04-09T15:16:02.877Z,2.17
2024-04-09T15:18:29.983Z,2.20
2024-04-09T15:20:57.004Z,2.60
2024-04-09T15:23:24.138Z,1.50
2024-04-09T15:25:55.592Z,1.80
2024-04-09T15:28:22.736Z,1.95
2024-04-09T15:30:53.656Z,1.38
2024-04-09T15:33:21.678Z,1.70
2024-04-09T15:35:55.898Z,1.87
2024-04-09T15:38:23.632Z,2.17
2024-04-09T15:40:54.432Z,2.55
2024-04-09T15:43:21.871Z,2.22
2024-04-09T15:45:49.526Z,2.20
2024-04-09T15:48:18.721Z,1.23
2024-04-09T15:50:46.148Z,1.30
2024-04-09T15:53:13.166Z,1.70
2024-04-09T15:55:40.322Z,1.83
2024-04-09T15:58:07.278Z,2.35
2024-04-09T16:00:35.793Z,1.70
2024-04-09T16:03:03.044Z,1.90
2024-04-09T16:05:31.998Z,2.17
2024-04-09T16:07:59.303Z,1.70
2024-04-09T16:10:26.905Z,2.00
2024-04-09T16:12:53.928Z,1.93
2024-04-09T16:15:20.939Z,1.75
2024-04-09T16:17:52.536Z,2.28
2024-04-09T16:20:19.900Z,1.85
2024-04-09T16:22:46.961Z,1.90
2024-04-09T16:25:15.453Z,1.43
2024-04-09T16:27:42.543Z,1.80
2024-04-09T16:30:11.800Z,2.53
2024-04-09T16:32:41.382Z,1.67
2024-04-09T16:35:09.825Z,2.08
2024-04-09T16:37:37.071Z,1.87
2024-04-09T16:40:05.717Z,1.58
2024-04-09T16:42:32.825Z,2.10
2024-04-09T16:45:04.449Z,1.77
2024-04-09T16:47:32.049Z,2.15
2024-04-09T16:49:59.104Z,2.53
2024-04-09T16:52:26.437Z,2.22
2024-04-09T16:54:53.462Z,3.15
2024-04-09T16:57:29.836Z,2.70
2024-04-09T17:00:05.416Z,2.83
2024-04-09T17:02:32.577Z,2.03
2024-04-09T21:30:59.180Z,3.77
2024-04-09T21:33:26.795Z,3.33
2024-04-09T21:35:55.810Z,3.63
2024-04-09T21:38:23.171Z,3.80
2024-04-09T21:40:50.418Z,3.58
2024-04-09T21:43:17.441Z,3.70
2024-04-09T21:45:47.406Z,3.05
2024-04-09T21:48:14.562Z,4.03
2024-04-09T21:50:41.778Z,3.85
2024-04-09T21:53:08.851Z,3.67
2024-04-09T21:55:35.866Z,2.80
2024-04-09T21:58:04.307Z,3.38
2024-04-09T22:00:39.030Z,3.38
2024-04-09T22:03:06.338Z,3.10
2024-04-09T22:05:33.651Z,3.55
2024-04-09T22:08:00.788Z,3.00
2024-04-09T22:10:29.294Z,2.80
2024-04-09T22:13:00.280Z,3.85
2024-04-09T22:15:27.661Z,2.53
2024-04-09T22:17:54.994Z,2.97
2024-04-09T22:20:22.900Z,2.87
2024-04-09T22:22:50.133Z,2.83
2024-04-09T22:25:17.652Z,2.63
2024-04-09T22:27:47.985Z,3.20
2024-04-09T22:30:14.997Z,2.92
2024-04-09T22:32:43.938Z,3.27
2024-04-09T22:35:11.113Z,3.20
2024-04-09T22:37:38.051Z,3.60
2024-04-09T22:40:05.914Z,3.65
2024-04-09T22:42:33.842Z,3.55
2024-04-09T22:45:00.860Z,2.80
2024-04-09T22:47:31.277Z,3.22
2024-04-09T22:49:58.594Z,3.55
2024-04-09T22:52:27.964Z,3.58
2024-04-09T22:54:55.097Z,3.35
2024-04-09T22:57:22.242Z,2.67
2024-04-09T22:59:49.465Z,3.05
2024-04-09T23:02:17.302Z,3.35
2024-04-09T23:04:44.673Z,2.88
2024-04-09T23:07:12.252Z,3.40
2024-04-09T23:09:44.635Z,3.10
2024-04-09T23:12:15.233Z,3.28
2024-04-09T23:14:43.061Z,3.42
2024-04-09T23:17:10.973Z,2.92
2024-04-09T23:19:38.095Z,3.55
2024-04-09T23:22:05.363Z,2.40
2024-04-09T23:24:32.432Z,3.45
2024-04-09T23:26:59.547Z,3.25
2024-04-09T23:29:26.645Z,3.13
2024-04-09T23:31:53.817Z,3.78
2024-04-09T23:34:20.953Z,3.00
2024-04-09T23:36:48.034Z,2.67
2024-04-09T23:39:16.278Z,3.47
2024-04-09T23:41:43.303Z,3.25
2024-04-09T23:44:10.920Z,4.35
2024-04-09T23:46:38.025Z,2.93
2024-04-09T23:49:05.082Z,3.38
2024-04-09T23:51:32.169Z,3.45
2024-04-09T23:53:59.186Z,3.33
2024-04-09T23:56:26.632Z,3.55
2024-04-09T23:58:53.704Z,3.57
